METAR Data
IDs: Format: Raw Decoded Include TAF

Data at: 1949 UTC 17 Nov 2019

KJLN 171853Z 28009KT 10SM CLR 11/02 A2999 RMK AO2 SLP154 T01110022
KJLN 171753Z 28011KT 10SM OVC110 09/01 A3001 RMK AO2 SLP163 60000 T00940011 10100 20056 58009
KJLN 171653Z 26009KT 210V280 10SM BKN100 OVC120 09/M01 A3002 RMK AO2 SLP167 T00891006
KJLN 171553Z 20011KT 10SM OVC080 08/M01 A3004 RMK AO2 RAB10E47 SLP172 P0000 T00781006
KJLN 171453Z 21009KT 10SM OVC100 08/M02 A3004 RMK AO2 SLP173 T00781022 50001
KJLN 171353Z 22006KT 10SM CLR 08/M03 A3005 RMK AO2 SLP175 T00781028
KJLN 171253Z 20007KT 10SM CLR 07/M02 A3005 RMK AO2 SLP175 T00721022
KJLN 171153Z 17004KT 10SM CLR 06/M02 A3004 RMK AO2 SLP171 T00611022 10078 20056 58008
KJLN 171053Z AUTO 18006KT 10SM CLR 06/M03 A3005 RMK AO2 SLP177 T00611028
KJLN 170953Z AUTO 18006KT 10SM CLR 07/M03 A3006 RMK AO2 SLP176 T00721028
KJLN 170853Z AUTO 18008KT 10SM CLR 07/M03 A3006 RMK AO2 SLP178 T00721033 58008
KJLN 170753Z AUTO 19005KT 10SM CLR 07/M03 A3009 RMK AO2 SLP187 T00721033
KJLN 170653Z AUTO 18004KT 10SM CLR 08/M04 A3009 RMK AO2 SLP189 T00781039
KJLN 170553Z AUTO 17006KT 10SM CLR 08/M03 A3009 RMK AO2 SLP188 T00781033 10128 20078 401560000 51005
KJLN 170453Z AUTO 17006KT 10SM CLR 08/M03 A3008 RMK AO2 SLP187 T00831033
KJLN 170353Z AUTO 15005KT 10SM CLR 09/M03 A3009 RMK AO2 SLP189 T00891028
KJLN 170253Z 14005KT 10SM CLR 09/M03 A3007 RMK AO2 SLP184 T00941033 58001
KJLN 170153Z 15008KT 10SM CLR 10/M04 A3007 RMK AO2 SLP184 T01001039
KJLN 170053Z 14005KT 10SM CLR 11/M03 A3008 RMK AO2 SLP187 T01061033
KJLN 162353Z 14006KT 10SM CLR 13/M03 A3007 RMK AO2 SLP185 T01281033 10156 20122 56010
KJLN 162253Z 00000KT 10SM CLR 12/M02 A3008 RMK AO2 SLP186 T01221022
KJLN 162153Z 13005KT 10SM CLR 16/M02 A3008 RMK AO2 SLP188 T01561022
KJLN 162053Z 17005KT 10SM CLR 16/M02 A3010 RMK AO2 SLP195 T01561022 56032
KJLN 161853Z 20008KT 10SM CLR 15/M02 A3016 RMK AO2 SLP215 T01501022
KJLN 161753Z 21009KT 10SM CLR 13/M03 A3020 RMK AO2 SLP228 T01331028 10139 20006 58022
KJLN 161653Z 19008KT 10SM CLR 12/M03 A3024 RMK AO2 SLP243 T01171028
KJLN 161553Z 16008KT 10SM CLR 10/M03 A3026 RMK AO2 SLP250 T01001033
KJLN 161453Z 14006KT 10SM CLR 07/M03 A3027 RMK AO2 SLP254 T00721033 53003
KJLN 161353Z 15006KT 10SM CLR 03/M04 A3026 RMK AO2 SLP252 T00281039
KJLN 161253Z 14004KT 10SM CLR 02/M05 A3026 RMK AO2 SLP251 T00171050
KJLN 161153Z 14005KT 10SM CLR 02/M06 A3026 RMK AO2 SLP249 T00221056 10033 20000 57004
KJLN 161053Z AUTO 14006KT 10SM CLR 02/M06 A3026 RMK AO2 SLP248 T00221056
KJLN 160953Z AUTO 12003KT 10SM CLR 02/M06 A3027 RMK AO2 SLP252 T00171056
KJLN 160853Z AUTO 12006KT 10SM CLR 01/M05 A3027 RMK AO2 SLP252 T00111050 58009
KJLN 160753Z AUTO 13004KT 10SM CLR 01/M04 A3028 RMK AO2 SLP256 T00061044